Time;durP1;ratioP1;P1;durP2;ratioP2;P2;SDS_P1;SDS_P2;PMS_P1;PMS_P2;Temp;Humidity;BMP_temperature;BMP_pressure;BME280_temperature;BME280_humidity;BME280_pressure;Samples;Min_cycle;Max_cycle;Signal;HPM_P1;HPM_P2
2022/04/08 00:01:57;;;;;;;2.40;1.50;;;10.40;99.90;;;;;;4913946;29;20484;-70
2022/04/08 00:04:23;;;;;;;3.07;1.40;;;10.40;99.90;;;;;;4900700;29;21113;-70
2022/04/08 00:06:51;;;;;;;2.60;0.93;;;10.40;99.90;;;;;;4917377;29;20437;-70
2022/04/08 00:09:19;;;;;;;3.83;1.27;;;10.40;99.90;;;;;;4916326;29;20963;-70
2022/04/08 00:11:47;;;;;;;3.27;1.10;;;10.30;99.90;;;;;;4917132;29;20406;-70
2022/04/08 00:14:13;;;;;;;3.27;1.00;;;10.30;99.90;;;;;;4931298;29;21315;-70
2022/04/08 00:16:39;;;;;;;3.43;1.30;;;10.30;99.90;;;;;;4915517;29;20538;-70
2022/04/08 00:19:06;;;;;;;2.37;1.10;;;10.30;99.90;;;;;;4915956;29;20425;-70
2022/04/08 00:21:34;;;;;;;2.30;1.40;;;10.30;99.90;;;;;;4916226;29;20832;-70
2022/04/08 00:24:03;;;;;;;1.87;0.77;;;10.30;99.90;;;;;;4915723;29;20450;-70
2022/04/08 00:26:30;;;;;;;4.50;1.30;;;10.30;99.90;;;;;;4931301;29;20436;-70
2022/04/08 00:28:56;;;;;;;2.30;1.13;;;10.30;99.90;;;;;;4912660;29;20442;-70
2022/04/08 00:31:24;;;;;;;4.17;1.20;;;10.30;99.90;;;;;;4897822;29;20425;-70
2022/04/08 00:33:50;;;;;;;2.60;1.47;;;10.30;99.90;;;;;;4908160;29;20533;-70
2022/04/08 00:36:16;;;;;;;4.50;1.00;;;10.30;99.90;;;;;;4931268;29;20547;-70
2022/04/08 00:38:42;;;;;;;3.30;1.40;;;10.30;99.90;;;;;;4896469;29;20438;-71
2022/04/08 00:41:11;;;;;;;4.03;1.00;;;10.30;99.90;;;;;;4905707;29;21058;-71
2022/04/08 00:43:42;;;;;;;4.10;1.30;;;10.30;99.90;;;;;;4899765;29;20503;-70
2022/04/08 00:46:13;;;;;;;3.70;1.20;;;10.30;99.90;;;;;;4899096;29;20532;-70
2022/04/08 00:48:41;;;;;;;4.80;1.20;;;10.30;99.90;;;;;;4931218;29;20416;-70
2022/04/08 00:51:11;;;;;;;3.03;1.20;;;10.20;99.90;;;;;;4930699;29;20475;-70
2022/04/08 00:53:39;;;;;;;5.93;1.27;;;10.20;99.90;;;;;;4915367;29;20409;-70
2022/04/08 00:56:08;;;;;;;2.80;1.23;;;10.20;99.90;;;;;;4915953;29;20478;-70
2022/04/08 00:58:37;;;;;;;3.30;1.33;;;10.20;99.90;;;;;;4931114;29;20570;-70
2022/04/08 01:01:05;;;;;;;3.53;1.53;;;10.20;99.90;;;;;;4916423;29;20464;-70
2022/04/08 01:03:36;;;;;;;3.03;1.13;;;10.20;99.90;;;;;;4899491;29;20457;-70
2022/04/08 01:06:04;;;;;;;2.80;1.00;;;10.20;99.90;;;;;;4915229;29;20525;-70
2022/04/08 01:08:35;;;;;;;3.83;1.77;;;10.20;99.90;;;;;;4910492;29;20435;-70
2022/04/08 01:11:08;;;;;;;5.13;1.50;;;10.20;99.90;;;;;;4913107;29;20425;-70
2022/04/08 01:13:39;;;;;;;8.70;1.00;;;10.20;99.90;;;;;;4916444;29;20417;-70
2022/04/08 01:16:06;;;;;;;4.57;1.43;;;10.20;99.90;;;;;;4899352;29;20484;-70
2022/04/08 01:18:34;;;;;;;8.77;1.90;;;10.20;99.90;;;;;;4915187;29;20588;-70
2022/04/08 01:21:06;;;;;;;4.70;1.80;;;10.20;99.90;;;;;;4899042;29;20479;-70
2022/04/08 01:23:36;;;;;;;5.43;1.60;;;10.10;99.90;;;;;;4915338;29;20425;-70
2022/04/08 01:26:06;;;;;;;3.47;1.40;;;10.10;99.90;;;;;;4899569;29;20465;-70
2022/04/08 01:28:33;;;;;;;2.83;1.30;;;10.10;99.90;;;;;;4930623;29;20977;-70
2022/04/08 01:30:59;;;;;;;5.80;1.43;;;10.10;99.90;;;;;;4916180;29;20410;-71
2022/04/08 01:33:27;;;;;;;6.33;2.07;;;10.10;99.90;;;;;;4915742;29;20420;-70
2022/04/08 01:35:56;;;;;;;4.43;1.60;;;10.10;99.90;;;;;;4914428;29;20487;-70
2022/04/08 01:38:24;;;;;;;6.13;2.13;;;10.10;99.90;;;;;;4898663;29;20437;-70
2022/04/08 01:40:54;;;;;;;5.17;1.40;;;10.10;99.90;;;;;;4914660;29;20892;-70
2022/04/08 01:43:22;;;;;;;5.77;1.80;;;10.10;99.90;;;;;;4898801;29;20178;-70
2022/04/08 01:45:48;;;;;;;4.07;1.70;;;10.10;99.90;;;;;;4914835;29;20433;-70
2022/04/08 01:48:17;;;;;;;6.00;1.33;;;10.10;99.90;;;;;;4914808;29;20426;-70
2022/04/08 01:50:49;;;;;;;10.30;1.63;;;10.10;99.90;;;;;;4899113;29;20464;-70
2022/04/08 01:53:19;;;;;;;6.70;1.63;;;10.10;99.90;;;;;;4914840;29;20461;-70
2022/04/08 01:55:45;;;;;;;5.20;1.57;;;10.10;99.90;;;;;;4915788;29;20421;-70
2022/04/08 01:58:11;;;;;;;3.60;1.60;;;10.10;99.90;;;;;;4919390;29;20430;-70
2022/04/08 02:00:38;;;;;;;4.40;1.77;;;10.10;99.90;;;;;;4919312;29;20795;-70
2022/04/08 02:03:04;;;;;;;6.27;1.90;;;10.10;99.90;;;;;;4902434;29;20759;-70
2022/04/08 02:05:32;;;;;;;4.53;1.53;;;10.00;99.90;;;;;;4919126;29;20452;-70
2022/04/08 02:08:00;;;;;;;6.47;1.80;;;10.10;99.90;;;;;;4919197;29;20943;-70
2022/04/08 02:10:29;;;;;;;5.23;2.10;;;10.00;99.90;;;;;;4944040;29;20519;-70
2022/04/08 02:12:54;;;;;;;5.23;1.67;;;10.00;99.90;;;;;;4917727;29;20454;-70
2022/04/08 02:15:31;;;;;;;4.17;1.57;;;10.00;99.90;;;;;;4918004;29;20911;-70
2022/04/08 02:17:57;;;;;;;5.80;1.77;;;10.00;99.90;;;;;;4919116;29;20999;-70
2022/04/08 02:20:26;;;;;;;5.07;1.70;;;10.00;99.90;;;;;;4917936;29;20464;-70
2022/04/08 02:22:57;;;;;;;4.80;1.63;;;10.00;99.90;;;;;;4933543;29;20420;-70
2022/04/08 02:25:27;;;;;;;7.33;1.70;;;10.00;99.90;;;;;;4918815;29;20425;-70
2022/04/08 02:27:55;;;;;;;5.20;1.73;;;10.00;99.90;;;;;;4933163;29;21215;-70
2022/04/08 02:30:22;;;;;;;7.87;1.60;;;10.00;99.90;;;;;;4918804;29;20452;-70
2022/04/08 02:32:48;;;;;;;7.27;1.73;;;10.00;99.90;;;;;;4933212;29;20432;-71
2022/04/08 02:35:21;;;;;;;4.33;1.80;;;10.00;99.90;;;;;;4917580;29;20448;-70
2022/04/08 02:37:47;;;;;;;4.73;1.60;;;10.00;99.90;;;;;;4917103;29;20550;-70
2022/04/08 02:40:13;;;;;;;7.80;1.87;;;10.00;99.90;;;;;;4917139;29;20521;-70
2022/04/08 02:42:39;;;;;;;6.73;1.70;;;10.00;99.90;;;;;;4914180;29;20422;-70
2022/04/08 02:45:05;;;;;;;8.17;1.80;;;10.00;99.90;;;;;;4947490;29;20432;-70
2022/04/08 02:47:31;;;;;;;4.63;1.40;;;10.00;99.90;;;;;;4933027;29;21004;-70
2022/04/08 02:49:57;;;;;;;5.37;2.07;;;10.00;99.90;;;;;;4917395;29;20456;-70
2022/04/08 02:52:26;;;;;;;4.90;1.90;;;10.00;99.90;;;;;;4913920;29;20454;-70
2022/04/08 02:54:54;;;;;;;3.70;1.90;;;9.90;99.90;;;;;;4898554;29;20456;-70
2022/04/08 02:57:20;;;;;;;4.47;1.73;;;10.00;99.90;;;;;;4898499;29;20480;-70
2022/04/08 02:59:46;;;;;;;4.23;1.90;;;9.90;99.90;;;;;;4883013;29;20465;-70
2022/04/08 03:02:15;;;;;;;5.40;2.03;;;9.90;99.90;;;;;;4904489;29;21047;-70
2022/04/08 03:04:41;;;;;;;3.80;1.50;;;9.90;99.90;;;;;;4901701;29;20417;-70
2022/04/08 03:07:07;;;;;;;6.50;2.23;;;9.90;99.90;;;;;;4898149;29;20544;-70
2022/04/08 03:09:37;;;;;;;4.33;1.83;;;9.90;99.90;;;;;;4926267;29;20443;-70
2022/04/08 03:12:04;;;;;;;5.87;1.70;;;9.90;99.90;;;;;;4936269;29;20801;-70
2022/04/08 03:14:33;;;;;;;3.53;1.53;;;9.90;99.90;;;;;;4930556;29;20550;-70
2022/04/08 03:16:59;;;;;;;6.10;1.90;;;9.90;99.90;;;;;;4932891;29;20441;-70
2022/04/08 03:19:27;;;;;;;3.90;1.70;;;9.90;99.90;;;;;;4918126;29;20460;-70
2022/04/08 03:21:56;;;;;;;5.17;1.80;;;9.90;99.90;;;;;;4917041;29;20468;-71
2022/04/08 03:24:22;;;;;;;8.53;2.13;;;9.90;99.90;;;;;;4885878;29;20429;-70
2022/04/08 03:26:48;;;;;;;5.33;2.07;;;9.90;99.90;;;;;;4901414;29;20460;-70
2022/04/08 03:29:16;;;;;;;6.47;1.60;;;9.90;99.90;;;;;;4918097;29;20433;-70
2022/04/08 03:31:45;;;;;;;7.03;1.50;;;9.90;99.90;;;;;;4918078;29;20413;-71
2022/04/08 03:34:18;;;;;;;5.07;1.90;;;9.90;99.90;;;;;;4916327;29;20436;-70
2022/04/08 03:36:46;;;;;;;4.70;1.40;;;9.90;99.90;;;;;;4900701;29;20561;-70
2022/04/08 03:39:14;;;;;;;7.43;1.60;;;9.80;99.90;;;;;;4917497;29;20520;-71
2022/04/08 03:41:40;;;;;;;3.30;1.57;;;9.80;99.90;;;;;;4932155;29;20551;-70
2022/04/08 03:44:06;;;;;;;4.73;1.83;;;9.80;99.90;;;;;;4917339;29;20439;-70
2022/04/08 03:46:37;;;;;;;4.13;1.60;;;9.80;99.90;;;;;;4916306;29;20943;-70
2022/04/08 03:49:11;;;;;;;3.97;1.73;;;9.80;99.90;;;;;;4901149;29;20794;-70
2022/04/08 03:51:37;;;;;;;5.03;1.90;;;9.80;99.90;;;;;;4931464;29;20420;-70
2022/04/08 03:54:03;;;;;;;5.90;2.10;;;9.80;99.90;;;;;;4917352;29;20456;-70
2022/04/08 03:56:29;;;;;;;6.90;1.70;;;9.80;99.90;;;;;;4916487;29;20460;-70
2022/04/08 03:59:02;;;;;;;5.87;1.47;;;9.80;99.90;;;;;;4917575;29;20444;-70
2022/04/08 04:01:28;;;;;;;6.47;1.60;;;9.80;99.90;;;;;;4917095;29;20983;-70
2022/04/08 04:03:56;;;;;;;4.33;1.53;;;9.80;99.90;;;;;;4916467;29;20421;-70
2022/04/08 04:06:22;;;;;;;3.23;1.47;;;9.80;99.90;;;;;;4931735;29;20774;-70
2022/04/08 04:08:51;;;;;;;5.80;1.60;;;9.80;99.90;;;;;;5029605;23;20506;-71
2022/04/08 04:11:20;;;;;;;8.47;1.80;;;9.80;99.90;;;;;;4924749;29;20499;-71
2022/04/08 04:13:46;;;;;;;4.10;1.70;;;9.80;99.90;;;;;;4935426;29;20984;-71
2022/04/08 04:16:14;;;;;;;4.10;1.50;;;9.80;99.90;;;;;;4936629;29;20855;-71
2022/04/08 04:18:42;;;;;;;9.37;1.60;;;9.80;99.90;;;;;;4941514;29;20451;-71
2022/04/08 04:21:08;;;;;;;5.03;1.43;;;9.80;99.90;;;;;;4934190;29;20494;-71
2022/04/08 04:23:34;;;;;;;3.73;1.90;;;9.70;99.90;;;;;;4934952;29;20412;-74
2022/04/08 04:26:06;;;;;;;2.53;1.30;;;9.80;99.90;;;;;;4919712;29;20857;-73
2022/04/08 04:28:33;;;;;;;9.37;2.50;;;9.70;99.90;;;;;;4934657;29;20810;-73
2022/04/08 04:31:04;;;;;;;6.13;1.80;;;9.70;99.90;;;;;;4935016;29;20801;-74
2022/04/08 04:33:31;;;;;;;5.67;1.90;;;9.70;99.90;;;;;;4900505;29;20494;-71
2022/04/08 04:35:57;;;;;;;5.17;1.60;;;9.70;99.90;;;;;;4916314;29;20456;-71
2022/04/08 04:38:23;;;;;;;6.67;1.90;;;9.70;99.90;;;;;;4915060;29;20459;-71
2022/04/08 04:40:49;;;;;;;8.23;2.57;;;9.70;99.90;;;;;;4917077;29;20801;-71
2022/04/08 04:43:20;;;;;;;3.50;1.20;;;9.70;99.90;;;;;;4917245;29;20409;-71
2022/04/08 04:45:46;;;;;;;5.67;1.70;;;9.70;99.90;;;;;;4917042;29;20453;-71
2022/04/08 04:48:12;;;;;;;3.43;1.73;;;9.70;99.90;;;;;;4932077;29;20457;-71
2022/04/08 04:50:39;;;;;;;3.77;1.80;;;9.70;99.90;;;;;;4916163;29;20421;-70
2022/04/08 04:53:07;;;;;;;3.80;1.87;;;9.70;99.90;;;;;;4931686;29;20412;-70
2022/04/08 04:55:36;;;;;;;4.13;2.30;;;9.70;99.90;;;;;;4916415;29;20430;-71
2022/04/08 04:58:06;;;;;;;7.73;2.63;;;9.70;99.90;;;;;;4931431;29;20929;-72
2022/04/08 05:00:32;;;;;;;3.67;1.93;;;9.70;99.90;;;;;;4915916;29;20448;-72
2022/04/08 05:03:01;;;;;;;9.83;1.70;;;9.70;99.90;;;;;;4917253;29;20411;-72
2022/04/08 05:05:29;;;;;;;6.63;2.00;;;9.70;99.90;;;;;;4917326;29;20397;-72
2022/04/08 05:08:07;;;;;;;5.37;1.77;;;9.60;99.90;;;;;;4931782;29;20436;-72
2022/04/08 05:10:33;;;;;;;3.80;2.10;;;9.60;99.90;;;;;;4915540;29;20441;-71
2022/04/08 05:13:02;;;;;;;8.83;2.03;;;9.60;99.90;;;;;;4916814;29;20806;-71
2022/04/08 05:15:29;;;;;;;3.13;1.50;;;9.60;99.90;;;;;;4952258;29;20424;-70
2022/04/08 05:18:00;;;;;;;4.73;1.93;;;9.60;99.90;;;;;;4947276;29;20440;-70
2022/04/08 05:20:26;;;;;;;6.37;1.70;;;9.60;99.90;;;;;;4934381;29;20444;-71
2022/04/08 05:22:54;;;;;;;3.93;1.90;;;9.60;99.90;;;;;;4918510;29;20496;-71
2022/04/08 05:25:22;;;;;;;3.73;1.87;;;9.60;99.90;;;;;;4934361;29;20876;-74
2022/04/08 05:27:51;;;;;;;5.80;1.70;;;9.60;99.90;;;;;;4934055;29;20466;-71
2022/04/08 05:30:21;;;;;;;5.43;2.53;;;9.60;99.90;;;;;;4934041;29;21440;-72
2022/04/08 05:32:50;;;;;;;5.27;2.20;;;9.60;99.90;;;;;;4937439;29;20943;-73
2022/04/08 05:35:18;;;;;;;3.80;1.93;;;9.60;99.90;;;;;;4955257;29;20407;-70
2022/04/08 05:37:48;;;;;;;5.50;1.90;;;9.50;99.90;;;;;;4928488;29;20997;-73
2022/04/08 05:40:16;;;;;;;3.53;1.67;;;9.60;99.90;;;;;;4927476;29;20451;-73
2022/04/08 05:42:46;;;;;;;5.63;1.90;;;9.60;99.90;;;;;;4922405;29;20437;-77
2022/04/08 05:45:17;;;;;;;5.03;2.13;;;9.50;99.90;;;;;;4930612;29;20427;-74
2022/04/08 05:47:50;;;;;;;5.30;2.17;;;9.50;99.90;;;;;;4926230;29;20440;-74
2022/04/08 05:50:19;;;;;;;3.47;1.80;;;9.50;99.90;;;;;;4921274;29;21032;-76
2022/04/08 05:52:47;;;;;;;4.73;2.10;;;9.60;99.90;;;;;;4937614;29;20428;-73
2022/04/08 05:55:15;;;;;;;4.50;1.73;;;9.50;99.90;;;;;;4927324;29;20796;-72
2022/04/08 05:57:41;;;;;;;4.03;1.93;;;9.50;99.90;;;;;;4951764;28;20874;-69
2022/04/08 06:00:13;;;;;;;5.53;1.77;;;9.60;99.90;;;;;;4941056;29;20415;-73
2022/04/08 06:02:45;;;;;;;4.10;1.80;;;9.50;99.90;;;;;;4940777;29;20405;-72
2022/04/08 06:05:11;;;;;;;3.87;2.10;;;9.50;99.90;;;;;;4957088;28;20431;-72
2022/04/08 06:07:53;;;;;;;3.80;2.17;;;9.50;99.90;;;;;;4956940;28;20447;-72
2022/04/08 06:10:23;;;;;;;3.00;1.93;;;9.50;99.90;;;;;;4958020;28;20453;-72
2022/04/08 06:12:52;;;;;;;3.47;1.87;;;9.50;99.90;;;;;;4940963;29;20800;-72
2022/04/08 06:15:26;;;;;;;3.50;1.87;;;9.50;99.90;;;;;;4941237;29;20429;-72
2022/04/08 06:17:54;;;;;;;6.53;2.93;;;9.50;99.90;;;;;;4956616;29;20439;-69
2022/04/08 06:20:23;;;;;;;4.80;2.33;;;9.50;99.90;;;;;;4956771;29;20889;-72
2022/04/08 06:22:49;;;;;;;3.40;1.93;;;9.50;99.90;;;;;;4956897;29;20407;-75
2022/04/08 06:25:18;;;;;;;5.23;2.30;;;9.50;99.90;;;;;;4937401;29;20408;-71
2022/04/08 06:27:45;;;;;;;4.93;2.10;;;9.50;99.90;;;;;;4921275;29;20431;-71
2022/04/08 06:30:15;;;;;;;5.40;2.30;;;9.50;99.90;;;;;;4937297;29;20407;-72
2022/04/08 06:32:43;;;;;;;6.30;2.70;;;9.50;99.90;;;;;;4937928;29;20446;-71
2022/04/08 06:35:12;;;;;;;3.83;2.63;;;9.50;99.90;;;;;;4952024;29;20467;-71
2022/04/08 06:37:40;;;;;;;5.40;2.87;;;9.50;99.90;;;;;;4936967;29;21052;-71
2022/04/08 06:40:10;;;;;;;5.40;2.97;;;9.50;99.90;;;;;;4953100;29;20388;-71
2022/04/08 06:42:38;;;;;;;4.87;3.30;;;9.50;99.90;;;;;;4936269;29;20413;-71
2022/04/08 06:45:06;;;;;;;3.87;3.07;;;9.50;99.90;;;;;;4938306;29;20407;-71
2022/04/08 06:47:32;;;;;;;4.30;3.30;;;9.50;99.90;;;;;;4936468;29;20456;-71
2022/04/08 06:50:01;;;;;;;5.80;3.87;;;9.50;99.90;;;;;;4938046;29;20440;-71
2022/04/08 06:52:29;;;;;;;4.77;3.73;;;9.40;99.90;;;;;;4936673;29;20404;-71
2022/04/08 06:54:55;;;;;;;7.23;4.00;;;9.50;99.90;;;;;;4936714;29;20452;-71
2022/04/08 06:57:21;;;;;;;9.40;4.10;;;9.50;99.90;;;;;;4918125;29;20445;-70
2022/04/08 06:59:47;;;;;;;8.30;4.57;;;9.50;99.90;;;;;;4935455;29;20845;-71
2022/04/08 07:02:15;;;;;;;7.60;3.90;;;9.40;99.90;;;;;;4936190;29;20452;-70
2022/04/08 07:04:47;;;;;;;6.93;4.20;;;9.50;99.90;;;;;;4935476;29;20416;-71
2022/04/08 07:07:14;;;;;;;5.97;4.27;;;9.40;99.90;;;;;;4935140;29;20450;-70
2022/04/08 07:09:42;;;;;;;4.80;4.10;;;9.40;99.90;;;;;;4936967;29;20457;-71
2022/04/08 07:12:10;;;;;;;9.00;5.00;;;9.40;99.90;;;;;;4920335;29;20432;-71
2022/04/08 07:14:36;;;;;;;5.77;4.23;;;9.40;99.90;;;;;;4936379;29;20914;-70
2022/04/08 07:17:02;;;;;;;10.83;4.47;;;9.40;99.90;;;;;;4934641;29;20457;-71
2022/04/08 07:19:28;;;;;;;6.70;4.10;;;9.50;99.90;;;;;;4918988;29;20428;-70
2022/04/08 07:21:55;;;;;;;5.90;4.27;;;9.40;99.90;;;;;;4908467;29;20906;-69
2022/04/08 07:24:21;;;;;;;8.40;5.33;;;9.40;99.90;;;;;;4935774;29;20468;-70
2022/04/08 07:26:47;;;;;;;12.03;6.03;;;9.40;99.90;;;;;;4923165;29;20456;-70
2022/04/08 07:29:16;;;;;;;6.67;4.27;;;9.40;99.90;;;;;;4917595;29;20970;-71
2022/04/08 07:31:42;;;;;;;7.20;4.90;;;9.40;99.90;;;;;;4936727;28;21125;-70
2022/04/08 07:34:11;;;;;;;8.17;5.50;;;9.40;99.90;;;;;;4932739;29;20432;-70
2022/04/08 07:36:39;;;;;;;6.77;5.07;;;9.40;99.90;;;;;;4934855;29;20520;-76
2022/04/08 07:39:07;;;;;;;8.13;5.47;;;9.40;99.90;;;;;;4923011;29;20819;-77
2022/04/08 07:41:35;;;;;;;10.40;5.37;;;9.40;99.90;;;;;;4936108;29;20451;-73
2022/04/08 07:44:01;;;;;;;9.07;5.57;;;9.50;99.90;;;;;;4924080;29;20463;-73
2022/04/08 07:46:27;;;;;;;8.00;5.37;;;9.40;99.90;;;;;;4932818;29;20949;-72
2022/04/08 07:48:56;;;;;;;8.17;5.27;;;9.40;99.90;;;;;;4936104;29;20428;-72
2022/04/08 07:51:22;;;;;;;9.67;5.60;;;9.40;99.90;;;;;;4935924;29;20855;-72
2022/04/08 07:53:50;;;;;;;7.40;5.30;;;9.40;99.90;;;;;;4937527;29;20539;-74
2022/04/08 07:56:16;;;;;;;6.90;5.37;;;9.40;99.90;;;;;;4919479;29;20582;-74
2022/04/08 07:58:45;;;;;;;9.57;5.43;;;9.40;99.90;;;;;;4931929;29;20482;-74
2022/04/08 08:01:11;;;;;;;6.43;5.30;;;9.40;99.90;;;;;;4917617;29;20838;-74
2022/04/08 08:03:37;;;;;;;8.30;4.90;;;9.40;99.90;;;;;;4933599;29;20451;-74
2022/04/08 08:06:06;;;;;;;8.13;5.60;;;9.40;99.90;;;;;;4901491;29;20503;-74
2022/04/08 08:08:32;;;;;;;7.27;5.37;;;9.40;99.90;;;;;;4932451;29;20467;-73
2022/04/08 08:11:00;;;;;;;5.87;4.57;;;9.50;99.90;;;;;;4918282;29;20428;-70
2022/04/08 08:13:29;;;;;;;7.70;4.83;;;9.50;99.90;;;;;;4932702;29;20529;-70
2022/04/08 08:15:55;;;;;;;4.67;4.20;;;9.50;99.90;;;;;;4928226;29;20479;-70
2022/04/08 08:18:22;;;;;;;8.73;4.83;;;9.50;99.90;;;;;;4916237;29;20482;-70
2022/04/08 08:20:50;;;;;;;5.23;4.40;;;9.50;99.90;;;;;;4933595;29;20877;-71
2022/04/08 08:23:16;;;;;;;6.13;4.30;;;9.50;99.90;;;;;;4932164;29;20447;-68
2022/04/08 08:25:44;;;;;;;5.47;3.73;;;9.50;99.90;;;;;;4933697;29;20439;-69
2022/04/08 08:28:10;;;;;;;4.70;4.00;;;9.50;99.90;;;;;;4932537;29;21020;-69
2022/04/08 08:30:38;;;;;;;7.10;4.27;;;9.50;99.90;;;;;;4932871;29;20438;-69
2022/04/08 08:33:07;;;;;;;8.50;4.07;;;9.50;99.90;;;;;;4932581;29;20498;-70
2022/04/08 08:35:34;;;;;;;3.87;3.50;;;9.50;99.90;;;;;;4932628;29;20844;-69
2022/04/08 08:38:03;;;;;;;5.40;3.73;;;9.50;99.90;;;;;;4932884;29;20471;-71
2022/04/08 08:40:34;;;;;;;5.60;3.50;;;9.50;99.90;;;;;;4921164;29;20474;-70
2022/04/08 08:43:03;;;;;;;5.77;3.93;;;9.50;99.90;;;;;;4931460;29;20464;-71
2022/04/08 08:45:32;;;;;;;4.57;3.30;;;9.50;99.90;;;;;;4933335;29;20424;-71
2022/04/08 08:48:03;;;;;;;5.57;3.43;;;9.50;99.90;;;;;;4932114;29;20534;-70
2022/04/08 08:50:30;;;;;;;4.53;3.20;;;9.50;99.90;;;;;;4916729;29;20463;-71
2022/04/08 08:52:57;;;;;;;8.43;3.47;;;9.50;99.90;;;;;;4932992;29;20432;-71
2022/04/08 08:55:24;;;;;;;4.33;2.90;;;9.50;99.90;;;;;;4932705;29;20519;-70
2022/04/08 08:57:53;;;;;;;5.37;3.10;;;9.50;99.90;;;;;;4934004;29;20526;-71
2022/04/08 09:00:23;;;;;;;4.83;3.30;;;9.50;99.90;;;;;;4932911;29;20437;-71
2022/04/08 09:02:51;;;;;;;11.43;3.20;;;9.60;99.90;;;;;;4933085;29;20967;-70
2022/04/08 09:05:24;;;;;;;2.83;2.63;;;9.60;99.90;;;;;;4933923;29;20476;-70
2022/04/08 09:08:05;;;;;;;4.07;2.70;;;9.50;99.90;;;;;;4937807;29;20451;-70
2022/04/08 09:10:42;;;;;;;5.57;2.70;;;9.50;99.90;;;;;;4923752;29;20450;-71
2022/04/08 09:13:12;;;;;;;5.73;3.13;;;9.60;99.90;;;;;;4930992;29;20469;-67
2022/04/08 09:15:54;;;;;;;4.03;2.77;;;9.50;99.90;;;;;;4935067;29;20443;-67
2022/04/08 09:18:20;;;;;;;4.30;2.70;;;9.60;99.90;;;;;;4919477;29;20435;-67
2022/04/08 09:20:49;;;;;;;3.90;2.83;;;9.60;99.90;;;;;;4939664;28;20466;-67
2022/04/08 09:23:20;;;;;;;3.60;2.70;;;9.60;99.90;;;;;;4931497;29;20431;-67
2022/04/08 09:26:01;;;;;;;5.03;2.60;;;9.60;99.90;;;;;;4926459;29;20486;-69
2022/04/08 09:28:40;;;;;;;3.60;2.67;;;9.60;99.90;;;;;;4929985;29;20432;-69
2022/04/08 09:31:21;;;;;;;4.87;2.70;;;9.60;99.90;;;;;;4916007;29;20480;-69
2022/04/08 09:33:53;;;;;;;3.50;2.60;;;9.60;99.90;;;;;;4931519;29;20443;-69
2022/04/08 09:36:30;;;;;;;5.03;2.80;;;9.60;99.90;;;;;;4930574;29;20451;-70
2022/04/08 09:38:56;;;;;;;2.50;2.20;;;9.60;99.90;;;;;;4926248;29;20487;-70
2022/04/08 09:41:44;;;;;;;6.23;2.90;;;9.60;99.90;;;;;;4930543;29;20482;-69
2022/04/08 09:44:27;;;;;;;3.80;2.60;;;9.60;99.90;;;;;;4931545;29;20480;-69
2022/04/08 09:46:55;;;;;;;3.17;2.13;;;9.60;99.90;;;;;;4931618;29;20439;-70
2022/04/08 09:49:24;;;;;;;4.30;2.77;;;9.60;99.90;;;;;;4937315;29;20431;-70
2022/04/08 09:51:51;;;;;;;6.10;2.67;;;9.60;99.90;;;;;;4914199;29;20451;-70
2022/04/08 09:54:20;;;;;;;3.87;2.37;;;9.60;99.90;;;;;;4914950;29;20984;-70
2022/04/08 09:56:47;;;;;;;3.90;2.47;;;9.70;99.90;;;;;;4934885;29;20977;-76
2022/04/08 09:59:22;;;;;;;4.60;2.80;;;9.70;99.90;;;;;;4933697;29;20588;-76
2022/04/08 10:01:50;;;;;;;4.23;3.10;;;9.70;99.90;;;;;;4931612;29;20838;-76
2022/04/08 10:04:22;;;;;;;3.90;3.10;;;9.70;99.90;;;;;;4933622;29;20450;-76
2022/04/08 10:06:53;;;;;;;3.87;2.53;;;9.70;99.90;;;;;;4914788;29;20451;-76
2022/04/08 10:09:24;;;;;;;3.77;2.97;;;9.70;99.90;;;;;;4931232;29;20952;-73
2022/04/08 10:12:02;;;;;;;3.80;3.10;;;9.70;99.90;;;;;;4931777;29;21152;-72
2022/04/08 10:14:51;;;;;;;7.70;2.73;;;9.70;99.90;;;;;;4914496;29;20431;-71
2022/04/08 10:17:17;;;;;;;4.23;2.70;;;9.70;99.90;;;;;;4915175;29;20455;-72
2022/04/08 10:19:43;;;;;;;4.00;3.10;;;9.70;99.90;;;;;;4932167;29;20443;-72
2022/04/08 10:22:20;;;;;;;5.07;3.50;;;9.70;99.90;;;;;;4936004;29;20537;-72
2022/04/08 10:24:57;;;;;;;4.50;3.07;;;9.70;99.90;;;;;;4918360;29;20507;-72
2022/04/08 10:27:38;;;;;;;6.40;3.50;;;9.80;99.90;;;;;;4933181;29;20453;-72
2022/04/08 10:30:25;;;;;;;3.73;3.43;;;9.70;99.90;;;;;;4918635;29;20515;-73
2022/04/08 10:33:06;;;;;;;5.77;3.10;;;9.80;99.90;;;;;;4935010;29;20431;-72
2022/04/08 10:35:38;;;;;;;5.77;3.57;;;9.80;99.90;;;;;;4929731;29;20880;-72
2022/04/08 10:38:08;;;;;;;4.43;3.50;;;9.80;99.90;;;;;;4915315;29;20428;-72
2022/04/08 10:40:38;;;;;;;4.60;3.27;;;9.80;99.90;;;;;;4931391;29;20473;-72
2022/04/08 10:43:09;;;;;;;8.17;3.00;;;9.80;99.90;;;;;;4934440;29;20527;-72
2022/04/08 10:45:38;;;;;;;3.93;3.30;;;9.80;99.90;;;;;;4928124;29;20431;-72
2022/04/08 10:48:10;;;;;;;4.93;3.20;;;9.80;99.90;;;;;;4934180;29;20499;-72
2022/04/08 10:50:42;;;;;;;4.10;2.80;;;9.80;99.90;;;;;;4930799;29;20456;-72
2022/04/08 10:53:13;;;;;;;4.67;3.20;;;9.80;99.90;;;;;;4926952;29;20432;-72
2022/04/08 10:55:53;;;;;;;6.23;3.07;;;9.80;99.90;;;;;;4929707;29;20433;-72
2022/04/08 10:58:40;;;;;;;3.13;2.73;;;9.80;99.90;;;;;;4893514;29;20447;-73
2022/04/08 11:01:18;;;;;;;3.93;3.07;;;9.80;99.90;;;;;;4901038;29;20515;-68
2022/04/08 11:03:54;;;;;;;3.93;2.90;;;9.80;99.90;;;;;;4935627;29;20433;-69
2022/04/08 11:06:20;;;;;;;4.33;2.90;;;9.80;99.90;;;;;;4936862;29;20439;-69
2022/04/08 11:08:46;;;;;;;3.97;2.73;;;9.80;99.90;;;;;;4935522;29;20430;-70
2022/04/08 11:11:15;;;;;;;5.00;3.37;;;9.80;99.90;;;;;;4936398;29;20408;-70
2022/04/08 11:13:43;;;;;;;3.00;2.70;;;9.80;99.90;;;;;;4920443;29;20428;-69
2022/04/08 11:16:15;;;;;;;2.87;2.43;;;9.80;99.90;;;;;;4935712;29;20542;-70
2022/04/08 11:18:47;;;;;;;2.73;2.53;;;9.80;99.90;;;;;;4936699;29;20910;-70
2022/04/08 11:21:23;;;;;;;10.07;3.20;;;9.80;99.90;;;;;;4935426;29;20990;-70
2022/04/08 11:24:04;;;;;;;4.97;2.77;;;9.90;99.90;;;;;;4919897;29;20485;-70
2022/04/08 11:26:40;;;;;;;3.20;2.77;;;9.90;99.90;;;;;;4936487;29;20995;-70
2022/04/08 11:29:10;;;;;;;3.13;2.30;;;9.90;99.90;;;;;;4936017;29;20408;-70
2022/04/08 11:31:42;;;;;;;5.10;3.10;;;9.90;99.90;;;;;;4936136;29;20424;-70
2022/04/08 11:34:08;;;;;;;3.60;2.80;;;9.90;99.90;;;;;;4934234;29;20460;-70
2022/04/08 11:36:38;;;;;;;4.17;2.77;;;9.90;99.90;;;;;;4935084;29;20480;-70
2022/04/08 11:39:07;;;;;;;3.10;2.60;;;9.90;99.90;;;;;;4936198;29;20750;-70
2022/04/08 11:41:37;;;;;;;4.20;3.13;;;9.90;99.90;;;;;;4919543;29;20980;-71
2022/04/08 11:44:08;;;;;;;4.07;3.00;;;9.90;99.90;;;;;;4935425;29;20422;-70
2022/04/08 11:46:34;;;;;;;4.80;2.40;;;9.90;99.90;;;;;;4935426;29;20472;-70
2022/04/08 11:49:03;;;;;;;3.33;2.60;;;9.90;99.90;;;;;;4935477;29;20791;-70
2022/04/08 11:51:31;;;;;;;3.80;2.53;;;9.90;99.90;;;;;;4919655;29;20425;-70
2022/04/08 11:54:01;;;;;;;3.00;2.20;;;9.90;99.90;;;;;;4936406;29;20447;-70
2022/04/08 11:56:27;;;;;;;3.00;2.70;;;9.90;99.90;;;;;;4936311;29;20445;-70
2022/04/08 11:59:01;;;;;;;5.67;2.73;;;9.90;99.90;;;;;;4919317;29;20411;-70
2022/04/08 12:01:38;;;;;;;4.23;2.73;;;10.00;99.90;;;;;;4934915;29;20465;-70
2022/04/08 12:04:08;;;;;;;3.47;3.00;;;10.00;99.90;;;;;;4935275;29;20451;-70
2022/04/08 12:06:41;;;;;;;5.80;2.60;;;10.00;99.90;;;;;;4919374;29;20451;-70
2022/04/08 12:09:09;;;;;;;5.50;3.10;;;10.00;99.90;;;;;;4934786;29;20435;-70
2022/04/08 12:11:37;;;;;;;3.80;3.07;;;10.00;99.90;;;;;;4934883;29;20771;-70
2022/04/08 12:14:08;;;;;;;4.70;2.73;;;10.00;99.90;;;;;;4934898;29;20890;-70
2022/04/08 12:16:34;;;;;;;4.30;2.83;;;10.00;99.90;;;;;;4934825;29;20444;-70
2022/04/08 12:19:02;;;;;;;4.87;3.40;;;10.00;99.90;;;;;;4919179;29;20962;-70
2022/04/08 12:21:30;;;;;;;4.10;3.70;;;10.00;99.90;;;;;;4934622;29;20493;-70
2022/04/08 12:23:58;;;;;;;4.53;3.20;;;10.00;99.90;;;;;;4956132;23;20557;-72
2022/04/08 12:26:32;;;;;;;3.77;2.33;;;10.10;99.90;;;;;;4951406;28;20558;-72
2022/04/08 12:29:15;;;;;;;3.43;3.07;;;10.00;99.90;;;;;;4934772;29;20420;-72
2022/04/08 12:31:59;;;;;;;9.10;2.70;;;10.10;99.90;;;;;;4951750;28;20971;-72
2022/04/08 12:34:30;;;;;;;6.87;3.20;;;10.00;99.90;;;;;;4932718;29;20444;-72
2022/04/08 12:36:56;;;;;;;4.07;3.30;;;10.10;99.90;;;;;;4950326;29;20434;-72
2022/04/08 12:39:24;;;;;;;4.73;2.93;;;10.10;99.90;;;;;;4930835;29;20452;-72
2022/04/08 12:41:58;;;;;;;3.00;2.53;;;10.10;99.90;;;;;;4930166;29;20955;-72
2022/04/08 12:44:27;;;;;;;3.23;2.93;;;10.10;99.90;;;;;;4936061;29;20543;-72
2022/04/08 12:46:56;;;;;;;5.53;3.07;;;10.10;99.90;;;;;;4947049;29;20438;-72
2022/04/08 12:49:24;;;;;;;3.67;2.97;;;10.10;99.90;;;;;;4931523;29;20910;-71
2022/04/08 12:51:50;;;;;;;5.93;2.40;;;10.10;99.90;;;;;;4931178;29;20428;-72
2022/04/08 12:54:16;;;;;;;3.70;3.27;;;10.10;99.90;;;;;;4930955;29;20475;-71
2022/04/08 12:56:43;;;;;;;3.13;2.60;;;10.10;99.90;;;;;;4915022;29;20965;-72
2022/04/08 12:59:12;;;;;;;3.37;2.30;;;10.10;99.90;;;;;;4946659;29;20435;-72
2022/04/08 13:01:38;;;;;;;2.60;2.40;;;10.10;99.90;;;;;;4930522;29;20888;-72
2022/04/08 13:04:04;;;;;;;2.57;2.37;;;10.10;99.90;;;;;;4931219;29;20428;-72